| time (UTC) | temp C | wind direction | speed KPH | gust KPH | rain 1hr cm | rain 24hr cm | rain mn cm | humidity % | barometer mb |
| 20260506135018 | 14 | 0.0 | 0.0 | 0.00 | 0.03 | 0.00 | 86 | 1018.8 | |
| 20260506134017 | 13 | 0.0 | 3.2 | 0.00 | 0.03 | 0.00 | 87 | 1018.7 | |
| 20260506133017 | 13 | 0.0 | 3.2 | 0.00 | 0.03 | 0.00 | 86 | 1018.6 | |
| 20260506132017 | 14 | 0.0 | 1.6 | 0.00 | 0.03 | 0.00 | 86 | 1018.5 | |
| 20260506131019 | 14 | 0.0 | 0.0 | 0.00 | 0.03 | 0.00 | 86 | 1018.5 | |
| 20260506130017 | 14 | 0.0 | 0.0 | 0.00 | 0.03 | 0.00 | 86 | 1018.5 | |
| 20260506125017 | 14 | 0.0 | 0.0 | 0.00 | 0.03 | 0.00 | 86 | 1018.5 | |
| 20260506124017 | 14 | 0.0 | 0.0 | 0.00 | 0.03 | 0.00 | 87 | 1018.5 | |
| 20260506123017 | 14 | 0.0 | 0.0 | 0.00 | 0.03 | 0.00 | 87 | 1018.4 | |
| 20260506122017 | 14 | 0.0 | 0.0 | 0.00 | 0.03 | 0.00 | 86 | 1018.4 | |
| 20260506121017 | 14 | 0.0 | 0.0 | 0.00 | 0.03 | 0.00 | 86 | 1018.2 | |
| 20260506120017 | 14 | 0.0 | 0.0 | 0.00 | 0.03 | 0.00 | 86 | 1018.2 | |
| 20260506115017 | 14 | 0.0 | 0.0 | 0.00 | 0.03 | 0.00 | 86 | 1018.2 | |
| 20260506114017 | 14 | 0.0 | 0.0 | 0.00 | 0.03 | 0.00 | 85 | 1018.1 | |
| 20260506113017 | 14 | 0.0 | 3.2 | 0.00 | 0.03 | 0.00 | 84 | 1018.1 | |
| 20260506112016 | 14 | 0.0 | 0.0 | 0.00 | 0.03 | 0.00 | 87 | 1018.0 | |
| 20260506110017 | 14 | 0.0 | 3.2 | 0.00 | 0.03 | 0.00 | 86 | 1017.9 | |
| 20260506105017 | 14 | 0.0 | 0.0 | 0.00 | 0.03 | 0.00 | 85 | 1017.8 | |
| 20260506104017 | 14 | 0.0 | 0.0 | 0.00 | 0.03 | 0.00 | 85 | 1017.7 | |
| 20260506103017 | 14 | 0.0 | 0.0 | 0.00 | 0.03 | 0.00 | 86 | 1017.6 | |
| 20260506102017 | 14 | 0.0 | 0.0 | 0.00 | 0.03 | 0.00 | 85 | 1017.5 | |
| 20260506100017 | 14 | 0.0 | 0.0 | 0.00 | 0.03 | 0.00 | 85 | 1017.4 | |
| 20260506093017 | 14 | 0.0 | 0.0 | 0.00 | 0.03 | 0.00 | 84 | 1017.4 | |
| 20260506092016 | 14 | 0.0 | 0.0 | 0.00 | 0.03 | 0.00 | 83 | 1017.4 | |
| 20260506091017 | 14 | 0.0 | 0.0 | 0.00 | 0.03 | 0.00 | 83 | 1017.5 | |
| 20260506090017 | 14 | 0.0 | 0.0 | 0.00 | 0.03 | 0.00 | 83 | 1017.4 | |
| 20260506085016 | 14 | 0.0 | 0.0 | 0.00 | 0.03 | 0.00 | 83 | 1017.5 | |
| 20260506084016 | 15 | 0.0 | 0.0 | 0.00 | 0.03 | 0.00 | 83 | 1017.5 | |
| 20260506083017 | 15 | 0.0 | 0.0 | 0.00 | 0.03 | 0.00 | 82 | 1017.5 | |
| 20260506082017 | 15 | 0.0 | 0.0 | 0.00 | 0.03 | 0.00 | 82 | 1017.5 | |
| 20260506081017 | 15 | 0.0 | 0.0 | 0.00 | 0.03 | 0.00 | 81 | 1017.4 | |
| 20260506073016 | 15 | 0.0 | 0.0 | 0.00 | 0.05 | 0.00 | 80 | 1017.0 | |
| 20260506072016 | 15 | 0.0 | 0.0 | 0.00 | 0.05 | 0.00 | 80 | 1017.0 | |
| 20260506071016 | 15 | 0.0 | 0.0 | 0.00 | 0.10 | 0.00 | 81 | 1016.9 | |
| 20260506062016 | 15 | 0.0 | 0.0 | 0.00 | 0.25 | 0.15 | 80 | 1016.4 | |
| 20260506051015 | 15 | 0.0 | 1.6 | 0.00 | 0.53 | 0.15 | 79 | 1016.0 | |
| 20260506045015 | 15 | 0.0 | 1.6 | 0.00 | 0.56 | 0.15 | 79 | 1015.7 | |
| 20260506044015 | 15 | 0.0 | 0.0 | 0.00 | 0.56 | 0.15 | 80 | 1015.6 | |
| 20260506043015 | 15 | 0.0 | 3.2 | 0.00 | 0.56 | 0.15 | 79 | 1015.4 | |
| 20260506042016 | 15 | 0.0 | 4.8 | 0.00 | 0.56 | 0.15 | 78 | 1015.3 | |
| 20260506041015 | 15 | 0.0 | 3.2 | 0.00 | 0.56 | 0.15 | 79 | 1015.1 | |
| 20260506040015 | 15 | 0.0 | 3.2 | 0.00 | 0.56 | 0.15 | 79 | 1015.0 | |
| 20260506032017 | 16 | 0.0 | 3.2 | 0.00 | 0.66 | 0.15 | 78 | 1014.4 | |
| 20260506031017 | 16 | 0.0 | 6.4 | 0.00 | 0.69 | 0.15 | 78 | 1014.3 | |
| 20260506030019 | 16 | 0.0 | 3.2 | 0.00 | 0.71 | 0.15 | 78 | 1014.1 | |
| 20260506023017 | 16 | 158 | 1.6 | 8.0 | 0.00 | 0.81 | 0.15 | 77 | 1013.8 |
| 20260506022017 | 16 | 180 | 1.6 | 8.0 | 0.00 | 0.84 | 0.15 | 77 | 1013.6 |
| 20260506021017 | 16 | 158 | 1.6 | 9.7 | 0.00 | 0.89 | 0.15 | 77 | 1013.6 |
| 20260506020017 | 17 | 158 | 3.2 | 12.9 | 0.00 | 0.97 | 0.15 | 77 | 1013.5 |
| 20260506015017 | 17 | 158 | 1.6 | 8.0 | 0.00 | 1.02 | 0.15 | 76 | 1013.3 |
| 20260506014017 | 17 | 0.0 | 6.4 | 0.00 | 1.07 | 0.15 | 76 | 1013.3 | |
| 20260506013017 | 17 | 135 | 1.6 | 8.0 | 0.00 | 1.09 | 0.15 | 74 | 1013.3 |
| 20260506012017 | 17 | 135 | 1.6 | 9.7 | 0.00 | 1.12 | 0.15 | 74 | 1013.1 |
| 20260506010017 | 18 | 158 | 3.2 | 11.3 | 0.00 | 1.17 | 0.15 | 74 | 1012.8 |
| 20260506005017 | 18 | 135 | 4.8 | 12.9 | 0.00 | 1.22 | 0.15 | 74 | 1012.9 |
| 20260506004017 | 18 | 135 | 3.2 | 14.5 | 0.00 | 1.22 | 0.15 | 73 | 1012.9 |
| 20260506003017 | 18 | 180 | 3.2 | 11.3 | 0.00 | 1.24 | 0.15 | 73 | 1012.9 |
| 20260506002017 | 19 | 158 | 4.8 | 9.7 | 0.00 | 1.27 | 0.15 | 71 | 1012.9 |
| 20260506001017 | 19 | 158 | 6.4 | 16.1 | 0.00 | 1.30 | 0.15 | 71 | 1012.9 |
| 20260505235017 | 19 | 158 | 4.8 | 12.9 | 0.00 | 1.35 | 0.15 | 71 | 1012.7 |
| 20260505234017 | 19 | 158 | 6.4 | 14.5 | 0.00 | 1.37 | 0.15 | 73 | 1012.8 |
| 20260505233017 | 19 | 158 | 6.4 | 17.7 | 0.00 | 1.40 | 0.15 | 69 | 1012.8 |
| 20260505232017 | 20 | 158 | 6.4 | 14.5 | 0.00 | 1.42 | 0.15 | 68 | 1012.9 |
| 20260505231016 | 19 | 180 | 4.8 | 11.3 | 0.00 | 1.47 | 0.15 | 71 | 1012.9 |
| 20260505230016 | 19 | 180 | 4.8 | 11.3 | 0.00 | 1.47 | 0.15 | 66 | 1013.0 |
| 20260505225017 | 20 | 158 | 4.8 | 9.7 | 0.00 | 1.50 | 0.15 | 64 | 1013.0 |
| 20260505224016 | 20 | 180 | 4.8 | 11.3 | 0.00 | 1.50 | 0.15 | 65 | 1013.1 |
| 20260505222016 | 19 | 158 | 4.8 | 9.7 | 0.00 | 1.52 | 0.15 | 68 | 1013.3 |
| 20260505221016 | 18 | 180 | 3.2 | 8.0 | 0.00 | 1.55 | 0.15 | 68 | 1013.4 |
| 20260505220017 | 18 | 180 | 3.2 | 8.0 | 0.00 | 1.55 | 0.15 | 66 | 1013.5 |
| 20260505215017 | 18 | 158 | 4.8 | 9.7 | 0.00 | 1.57 | 0.15 | 67 | 1013.5 |
| 20260505214016 | 19 | 180 | 4.8 | 9.7 | 0.00 | 1.57 | 0.15 | 65 | 1013.6 |
| 20260505213016 | 19 | 180 | 3.2 | 6.4 | 0.00 | 1.57 | 0.15 | 66 | 1013.7 |
| 20260505212016 | 18 | 158 | 3.2 | 8.0 | 0.00 | 1.57 | 0.15 | 73 | 1013.7 |
| 20260505211016 | 18 | 158 | 3.2 | 6.4 | 0.00 | 1.57 | 0.15 | 71 | 1013.8 |
| 20260505210016 | 18 | 180 | 3.2 | 8.0 | 0.00 | 1.57 | 0.15 | 71 | 1013.9 |
| 20260505204016 | 18 | 225 | 1.6 | 6.4 | 0.00 | 1.57 | 0.15 | 71 | 1014.0 |
| 20260505202016 | 17 | 0.0 | 3.2 | 0.00 | 1.57 | 0.15 | 72 | 1014.1 | |
| 20260505201016 | 17 | 225 | 1.6 | 6.4 | 0.00 | 1.57 | 0.15 | 73 | 1014.1 |
| 20260505200016 | 17 | 180 | 1.6 | 6.4 | 0.00 | 1.57 | 0.15 | 76 | 1014.1 |
| 20260505195016 | 17 | 180 | 3.2 | 8.0 | 0.00 | 1.57 | 0.15 | 77 | 1014.2 |
| 20260505193017 | 16 | 203 | 1.6 | 4.8 | 0.00 | 1.57 | 0.15 | 81 | 1014.3 |
| 20260505191016 | 15 | 180 | 3.2 | 6.4 | 0.00 | 1.57 | 0.15 | 82 | 1014.4 |
| 20260505190016 | 15 | 180 | 3.2 | 8.0 | 0.00 | 1.57 | 0.15 | 84 | 1014.3 |
| 20260505185016 | 15 | 180 | 1.6 | 4.8 | 0.00 | 1.57 | 0.15 | 82 | 1014.4 |
| 20260505183016 | 14 | 158 | 1.6 | 3.2 | 0.00 | 1.57 | 0.15 | 87 | 1014.4 |
| 20260505182016 | 14 | 0.0 | 3.2 | 0.03 | 1.57 | 0.15 | 87 | 1014.4 | |
| 20260505181016 | 13 | 158 | 1.6 | 6.4 | 0.03 | 1.57 | 0.15 | 88 | 1014.4 |
| 20260505180016 | 13 | 158 | 1.6 | 4.8 | 0.03 | 1.57 | 0.15 | 89 | 1014.4 |
| 20260505175016 | 13 | 158 | 1.6 | 4.8 | 0.03 | 1.57 | 0.15 | 88 | 1014.4 |
| 20260505173016 | 13 | 270 | 1.6 | 3.2 | 0.03 | 1.57 | 0.15 | 87 | 1014.2 |
| 20260505172021 | 13 | 270 | 1.6 | 4.8 | 0.00 | 1.55 | 0.13 | 87 | 1014.1 |
| 20260505171016 | 13 | 0.0 | 3.2 | 0.00 | 1.55 | 0.13 | 89 | 1014.1 | |
| 20260505170015 | 13 | 293 | 1.6 | 3.2 | 0.00 | 1.55 | 0.13 | 88 | 1014.2 |
| 20260505164015 | 13 | 315 | 1.6 | 4.8 | 0.00 | 1.55 | 0.13 | 86 | 1014.3 |
| 20260505163016 | 13 | 0.0 | 4.8 | 0.00 | 1.55 | 0.13 | 86 | 1014.1 | |
| 20260505161017 | 12 | 0.0 | 0.0 | 0.00 | 1.55 | 0.13 | 87 | 1013.8 | |
| 20260505153015 | 12 | 0.0 | 3.2 | 0.00 | 1.55 | 0.13 | 89 | 1013.6 | |
| 20260505152015 | 12 | 0.0 | 3.2 | 0.00 | 1.55 | 0.13 | 88 | 1013.4 | |
| 20260505151015 | 12 | 0.0 | 3.2 | 0.00 | 1.55 | 0.13 | 89 | 1013.4 |